createdAt,value
2022-10-15T00:01:53.114Z,9.86
2022-10-15T00:04:21.879Z,9.83
2022-10-15T00:06:51.458Z,9.77
2022-10-15T00:09:21.489Z,9.72
2022-10-15T00:11:51.605Z,9.63
2022-10-15T00:14:20.488Z,9.57
2022-10-15T00:16:50.437Z,9.57
2022-10-15T00:19:19.444Z,9.55
2022-10-15T00:21:48.662Z,9.52
2022-10-15T00:24:18.774Z,9.44
2022-10-15T00:26:47.720Z,9.37
2022-10-15T00:29:16.097Z,9.47
2022-10-15T00:31:46.259Z,9.52
2022-10-15T00:34:16.087Z,9.57
2022-10-15T00:36:45.941Z,9.63
2022-10-15T00:39:15.043Z,9.67
2022-10-15T00:41:46.623Z,9.65
2022-10-15T00:45:01.457Z,9.70
2022-10-15T00:47:34.411Z,9.72
2022-10-15T00:50:06.552Z,9.70
2022-10-15T00:52:42.334Z,9.70
2022-10-15T00:55:13.695Z,9.75
2022-10-15T00:57:42.763Z,9.77
2022-10-15T01:00:15.323Z,9.76
2022-10-15T01:02:45.047Z,9.78
2022-10-15T01:05:15.701Z,9.74
2022-10-15T01:07:44.674Z,9.90
2022-10-15T01:10:15.544Z,9.95
2022-10-15T01:12:57.439Z,9.99
2022-10-15T01:15:29.332Z,10.02
2022-10-15T01:18:01.182Z,10.02
2022-10-15T01:21:04.882Z,10.03
2022-10-15T01:24:12.939Z,10.04
2022-10-15T01:27:20.526Z,10.01
2022-10-15T01:30:00.249Z,9.99
2022-10-15T01:32:32.448Z,10.01
2022-10-15T01:35:09.633Z,10.00
2022-10-15T01:37:41.709Z,10.02
2022-10-15T01:40:14.598Z,10.04
2022-10-15T01:42:47.725Z,10.02
2022-10-15T01:45:20.304Z,10.09
2022-10-15T01:47:52.050Z,10.11
2022-10-15T01:50:24.192Z,10.13
2022-10-15T01:52:55.670Z,10.14
2022-10-15T01:55:25.955Z,10.15
2022-10-15T01:57:59.237Z,10.16
2022-10-15T02:00:28.368Z,10.17
2022-10-15T02:03:02.717Z,10.21
2022-10-15T02:05:35.479Z,10.23
2022-10-15T02:08:11.861Z,10.22
2022-10-15T02:13:18.306Z,10.23
2022-10-15T02:15:52.916Z,10.23
2022-10-15T02:18:29.442Z,10.24
2022-10-15T02:21:01.582Z,10.26
2022-10-15T02:23:37.076Z,10.26
2022-10-15T02:26:09.705Z,10.26
2022-10-15T02:28:38.977Z,10.25
2022-10-15T02:31:10.078Z,10.26
2022-10-15T02:33:40.526Z,10.27
2022-10-15T02:36:11.806Z,10.28
2022-10-15T02:38:42.072Z,10.28
2022-10-15T02:41:12.554Z,10.28
2022-10-15T02:43:42.673Z,10.30
2022-10-15T02:46:15.442Z,10.29
2022-10-15T02:48:46.765Z,10.31
2022-10-15T02:51:15.372Z,10.31
2022-10-15T02:53:44.129Z,10.32
2022-10-15T02:56:13.893Z,10.32
2022-10-15T02:58:43.649Z,10.34
2022-10-15T03:01:14.124Z,10.34
2022-10-15T03:03:44.432Z,10.35
2022-10-15T03:06:14.071Z,10.29
2022-10-15T03:08:44.456Z,10.29
2022-10-15T03:11:13.112Z,10.28
2022-10-15T03:13:42.277Z,10.29
2022-10-15T03:16:12.408Z,10.29
2022-10-15T03:18:41.341Z,10.31
2022-10-15T03:21:10.598Z,10.31
2022-10-15T03:23:42.128Z,10.32
2022-10-15T03:26:11.235Z,10.31
2022-10-15T03:28:40.201Z,10.32
2022-10-15T03:31:09.268Z,10.33
2022-10-15T03:33:39.002Z,10.34
2022-10-15T03:36:08.352Z,10.37
2022-10-15T03:38:36.821Z,10.40
2022-10-15T03:41:06.744Z,10.43
2022-10-15T03:43:37.602Z,10.44
2022-10-15T03:46:08.715Z,10.46
2022-10-15T03:48:38.762Z,10.47
2022-10-15T03:51:09.083Z,10.46
2022-10-15T03:53:37.810Z,10.45
2022-10-15T03:56:09.324Z,10.46
2022-10-15T03:58:39.556Z,10.46
2022-10-15T04:01:11.329Z,10.45
2022-10-15T04:03:40.292Z,10.48
2022-10-15T04:06:09.318Z,10.49
2022-10-15T04:08:38.064Z,10.50
2022-10-15T04:11:12.894Z,10.52
2022-10-15T04:13:42.673Z,10.52
2022-10-15T04:16:11.334Z,10.53
2022-10-15T04:18:40.444Z,10.48
2022-10-15T04:21:10.614Z,10.48
2022-10-15T04:23:39.501Z,10.50
2022-10-15T04:26:09.450Z,10.52
2022-10-15T04:28:40.330Z,10.53
2022-10-15T04:31:11.588Z,10.53
2022-10-15T04:33:39.802Z,10.52
2022-10-15T04:36:10.217Z,10.50
2022-10-15T04:38:44.406Z,10.48
2022-10-15T04:41:15.992Z,10.47
2022-10-15T04:43:44.098Z,10.24
2022-10-15T04:46:14.422Z,10.46
2022-10-15T04:48:43.434Z,10.44
2022-10-15T04:51:15.875Z,10.43
2022-10-15T04:53:44.543Z,10.44
2022-10-15T04:56:15.574Z,10.44
2022-10-15T04:58:47.488Z,10.40
2022-10-15T05:01:18.723Z,10.33
2022-10-15T05:03:50.356Z,10.45
2022-10-15T05:06:21.282Z,10.45
2022-10-15T05:08:50.926Z,10.47
2022-10-15T05:11:21.993Z,10.46
2022-10-15T05:13:54.325Z,10.37
2022-10-15T05:16:25.662Z,10.48
2022-10-15T05:18:59.255Z,10.50
2022-10-15T05:21:29.179Z,10.53
2022-10-15T05:24:00.831Z,10.56
2022-10-15T05:26:32.588Z,10.55
2022-10-15T05:29:04.328Z,10.56
2022-10-15T05:31:35.265Z,10.55
2022-10-15T05:34:08.961Z,10.53
2022-10-15T05:36:39.091Z,10.51
2022-10-15T05:39:10.961Z,10.51
2022-10-15T05:41:40.752Z,10.54
2022-10-15T05:44:14.508Z,10.56
2022-10-15T05:46:42.711Z,10.55
2022-10-15T05:49:11.421Z,10.54
2022-10-15T05:51:40.373Z,10.55
2022-10-15T05:54:09.463Z,10.58
2022-10-15T05:56:39.064Z,10.61
2022-10-15T05:59:07.650Z,10.62
2022-10-15T06:01:38.082Z,10.65
2022-10-15T06:04:08.233Z,10.68
2022-10-15T06:06:40.691Z,10.67
2022-10-15T06:09:12.053Z,10.70
2022-10-15T06:11:45.063Z,10.70
2022-10-15T06:14:13.206Z,10.72
2022-10-15T06:16:43.838Z,10.72
2022-10-15T06:19:12.586Z,10.66
2022-10-15T06:21:40.934Z,10.71
2022-10-15T06:24:10.229Z,10.74
2022-10-15T06:26:39.810Z,10.80
2022-10-15T06:29:08.734Z,10.73
2022-10-15T06:31:38.645Z,10.86
2022-10-15T06:34:09.466Z,10.92
2022-10-15T06:36:39.516Z,10.98
2022-10-15T06:39:07.919Z,11.01
2022-10-15T06:41:36.748Z,11.05
2022-10-15T06:44:06.426Z,11.09
2022-10-15T06:46:34.595Z,11.12
2022-10-15T06:49:03.356Z,11.12
2022-10-15T06:51:38.783Z,11.06
2022-10-15T06:54:07.666Z,11.13
2022-10-15T06:56:35.736Z,11.16
2022-10-15T06:59:06.287Z,11.17
2022-10-15T07:01:37.212Z,11.21
2022-10-15T07:04:09.020Z,11.22
2022-10-15T07:06:42.763Z,11.27
2022-10-15T07:09:15.435Z,11.33
2022-10-15T07:11:45.297Z,11.29
2022-10-15T07:14:14.173Z,11.43
2022-10-15T07:16:43.036Z,11.46
2022-10-15T07:19:16.058Z,11.51
2022-10-15T07:21:46.124Z,11.53
2022-10-15T07:24:20.459Z,11.57
2022-10-15T07:26:50.190Z,11.60
2022-10-15T07:29:21.340Z,11.63
2022-10-15T07:31:49.903Z,11.62
2022-10-15T07:34:18.888Z,11.65
2022-10-15T07:36:49.842Z,11.69
2022-10-15T07:39:23.149Z,11.74
2022-10-15T07:41:57.339Z,11.74
2022-10-15T07:44:27.943Z,11.83
2022-10-15T07:46:58.663Z,11.89
2022-10-15T07:49:27.713Z,11.97
2022-10-15T07:51:58.408Z,12.00
2022-10-15T07:54:27.512Z,12.07
2022-10-15T07:56:56.242Z,12.13
2022-10-15T07:59:26.840Z,12.12
2022-10-15T08:01:55.847Z,12.12
2022-10-15T08:04:25.876Z,12.20
2022-10-15T08:06:54.635Z,12.25
2022-10-15T08:09:24.836Z,12.34
2022-10-15T08:11:56.582Z,12.46
2022-10-15T08:14:27.527Z,12.60
2022-10-15T08:16:58.498Z,12.74
2022-10-15T08:19:29.568Z,12.81
2022-10-15T08:22:03.621Z,12.89
2022-10-15T08:24:38.366Z,12.94
2022-10-15T08:27:10.051Z,12.96
2022-10-15T08:29:42.231Z,12.94
2022-10-15T08:32:17.488Z,12.87
2022-10-15T08:34:52.113Z,12.83
2022-10-15T08:37:27.549Z,12.73
2022-10-15T08:40:00.236Z,12.68
2022-10-15T08:42:35.748Z,12.68
2022-10-15T08:45:07.614Z,12.67
2022-10-15T08:47:44.122Z,12.66
2022-10-15T08:50:23.948Z,12.56
2022-10-15T08:52:55.212Z,12.50
2022-10-15T08:58:03.866Z,12.41
2022-10-15T09:00:39.510Z,12.41
2022-10-15T09:03:31.053Z,12.43
2022-10-15T09:06:10.626Z,12.48
2022-10-15T09:08:50.413Z,12.53
2022-10-15T09:11:31.683Z,12.61
2022-10-15T09:14:07.142Z,12.61
2022-10-15T09:16:42.646Z,12.59
2022-10-15T09:19:17.932Z,12.57
2022-10-15T09:21:51.145Z,12.62
2022-10-15T09:24:30.022Z,12.63
2022-10-15T09:27:09.044Z,12.59
2022-10-15T09:29:47.844Z,12.61
2022-10-15T09:32:26.635Z,12.63
2022-10-15T09:35:02.291Z,12.63
2022-10-15T09:37:36.632Z,12.71
2022-10-15T09:40:30.475Z,12.79
2022-10-15T09:43:05.757Z,12.89
2022-10-15T09:45:40.183Z,12.98
2022-10-15T09:48:19.525Z,13.13
2022-10-15T09:50:57.913Z,13.22
2022-10-15T09:53:39.925Z,13.36
2022-10-15T09:56:12.994Z,13.37
2022-10-15T09:58:48.906Z,13.39
2022-10-15T10:01:22.975Z,13.42
2022-10-15T10:03:54.305Z,13.39
2022-10-15T10:06:26.235Z,13.40
2022-10-15T10:08:57.682Z,13.34
2022-10-15T10:11:29.131Z,13.34
2022-10-15T10:14:05.315Z,13.27
2022-10-15T10:16:38.250Z,13.22
2022-10-15T10:19:19.477Z,13.22
2022-10-15T10:21:50.480Z,13.30
2022-10-15T10:24:32.144Z,13.34
2022-10-15T10:27:06.241Z,13.42
2022-10-15T10:29:41.793Z,13.54
2022-10-15T10:32:22.125Z,13.55
2022-10-15T10:34:53.022Z,13.64
2022-10-15T10:37:23.455Z,13.58
2022-10-15T10:39:59.048Z,13.60
2022-10-15T10:42:40.187Z,13.43
2022-10-15T10:45:20.652Z,13.58
2022-10-15T10:47:51.526Z,13.57
2022-10-15T10:50:34.899Z,13.61
2022-10-15T10:53:22.248Z,13.69
2022-10-15T10:55:55.811Z,13.81
2022-10-15T10:58:27.224Z,13.90
2022-10-15T11:01:01.325Z,14.02
2022-10-15T11:03:36.386Z,14.16
2022-10-15T11:06:26.300Z,14.26
2022-10-15T11:09:05.750Z,14.27
2022-10-15T11:11:44.958Z,14.33
2022-10-15T11:14:23.834Z,14.44
2022-10-15T11:17:02.396Z,14.45
2022-10-15T11:22:50.770Z,14.48
2022-10-15T11:25:26.449Z,14.59
2022-10-15T11:28:08.844Z,14.79
2022-10-15T11:30:47.113Z,15.14
2022-10-15T11:33:47.593Z,15.74
2022-10-15T11:36:46.794Z,16.43
2022-10-15T11:39:37.212Z,16.36
2022-10-15T11:42:13.284Z,16.57
2022-10-15T11:44:57.429Z,16.60
2022-10-15T11:47:35.944Z,16.40
2022-10-15T11:50:19.492Z,16.14
2022-10-15T11:53:00.849Z,15.93
2022-10-15T11:55:37.081Z,15.87
2022-10-15T11:58:13.492Z,15.84
2022-10-15T12:00:44.456Z,15.73
2022-10-15T12:03:18.767Z,15.78
2022-10-15T12:05:53.401Z,15.67
2022-10-15T12:08:23.221Z,15.67
2022-10-15T12:11:05.637Z,15.70
2022-10-15T12:13:40.397Z,15.60
2022-10-15T12:16:19.867Z,15.40
2022-10-15T12:18:55.563Z,15.52
2022-10-15T12:21:37.751Z,15.63
2022-10-15T12:24:10.885Z,15.75
2022-10-15T12:26:46.579Z,15.86
2022-10-15T12:29:24.453Z,15.93
2022-10-15T12:31:56.456Z,15.87
2022-10-15T12:34:34.333Z,15.81
2022-10-15T12:37:15.680Z,15.73
2022-10-15T12:39:52.112Z,15.71
2022-10-15T12:42:25.933Z,15.61
2022-10-15T12:44:54.195Z,15.69
2022-10-15T12:47:54.963Z,15.81
2022-10-15T12:50:25.803Z,15.70
2022-10-15T12:52:59.882Z,15.72
2022-10-15T12:55:31.309Z,15.77
2022-10-15T12:58:03.409Z,15.70
2022-10-15T13:00:40.085Z,15.67
2022-10-15T13:03:26.725Z,15.86
2022-10-15T13:05:56.179Z,16.38
2022-10-15T13:08:30.624Z,16.93
2022-10-15T13:11:02.765Z,17.14
2022-10-15T13:13:35.705Z,17.10
2022-10-15T13:16:11.615Z,17.06
2022-10-15T13:18:42.522Z,17.18
2022-10-15T13:21:13.769Z,17.23
2022-10-15T13:23:49.021Z,17.37
2022-10-15T13:26:23.897Z,17.61
2022-10-15T13:28:53.304Z,17.25
2022-10-15T13:31:29.022Z,16.98
2022-10-15T13:34:05.285Z,16.76
2022-10-15T13:36:36.717Z,16.45
2022-10-15T13:39:10.048Z,16.45
2022-10-15T13:41:41.020Z,16.37
2022-10-15T13:44:22.819Z,16.30
2022-10-15T13:46:52.100Z,16.29
2022-10-15T13:49:22.250Z,16.19
2022-10-15T13:51:54.387Z,16.06
2022-10-15T13:54:30.342Z,15.90
2022-10-15T13:57:00.190Z,15.95
2022-10-15T13:59:31.427Z,16.01
2022-10-15T14:02:02.125Z,15.89
2022-10-15T14:04:33.327Z,15.82
2022-10-15T14:07:06.269Z,15.77
2022-10-15T14:09:39.865Z,15.66
2022-10-15T14:12:13.364Z,15.61
2022-10-15T14:14:47.418Z,15.56
2022-10-15T14:17:24.997Z,15.52
2022-10-15T14:20:14.770Z,15.52
2022-10-15T14:22:52.112Z,15.42
2022-10-15T14:25:26.211Z,15.39
2022-10-15T14:27:57.355Z,15.32
2022-10-15T14:30:32.853Z,15.28
2022-10-15T14:33:01.686Z,15.15
2022-10-15T14:35:34.006Z,15.13
2022-10-15T14:38:07.461Z,15.13
2022-10-15T14:40:38.992Z,15.15
2022-10-15T14:43:10.171Z,15.15
2022-10-15T14:45:44.880Z,14.99
2022-10-15T14:48:20.636Z,15.14
2022-10-15T14:50:51.580Z,15.08
2022-10-15T14:53:22.508Z,15.06
2022-10-15T14:55:56.865Z,15.07
2022-10-15T14:58:30.949Z,15.00
2022-10-15T15:01:05.180Z,15.02
2022-10-15T15:03:42.868Z,14.95
2022-10-15T15:06:12.578Z,14.87
2022-10-15T15:08:41.996Z,14.83
2022-10-15T15:11:18.237Z,14.80
2022-10-15T15:13:48.128Z,14.77
2022-10-15T15:16:19.870Z,14.77
2022-10-15T15:18:50.667Z,14.74
2022-10-15T15:21:23.231Z,14.66
2022-10-15T15:23:54.261Z,14.69
2022-10-15T15:26:25.557Z,14.67
2022-10-15T15:28:56.561Z,14.65
2022-10-15T15:31:26.850Z,14.66
2022-10-15T15:33:58.191Z,14.65
2022-10-15T15:36:29.328Z,14.63
2022-10-15T15:39:00.609Z,14.54
2022-10-15T15:41:34.702Z,14.60
2022-10-15T15:44:08.194Z,14.60
2022-10-15T15:46:41.046Z,14.58
2022-10-15T15:49:13.724Z,14.56
2022-10-15T15:51:44.325Z,14.55
2022-10-15T15:54:12.992Z,14.44
2022-10-15T15:56:45.801Z,14.50
2022-10-15T15:59:17.982Z,14.50
2022-10-15T16:01:48.191Z,14.48
2022-10-15T16:04:17.247Z,14.44
2022-10-15T16:06:48.863Z,14.42
2022-10-15T16:09:21.166Z,14.42
2022-10-15T16:11:55.259Z,14.40
2022-10-15T16:14:27.341Z,14.37
2022-10-15T16:16:59.170Z,14.34
2022-10-15T16:19:30.372Z,14.21
2022-10-15T16:22:02.705Z,14.27
2022-10-15T16:24:34.307Z,14.24
2022-10-15T16:27:07.246Z,14.22
2022-10-15T16:29:47.288Z,14.18
2022-10-15T16:32:22.814Z,14.12
2022-10-15T16:34:58.365Z,14.08
2022-10-15T16:37:28.242Z,14.03
2022-10-15T16:39:58.808Z,13.95
2022-10-15T16:42:31.896Z,13.98
2022-10-15T16:45:05.698Z,14.00
2022-10-15T16:47:36.841Z,13.96
2022-10-15T16:50:21.918Z,13.93
2022-10-15T16:52:55.413Z,13.92
2022-10-15T16:55:25.893Z,13.91
2022-10-15T16:57:58.139Z,13.86
2022-10-15T17:00:27.000Z,13.84
2022-10-15T17:02:57.139Z,13.83
2022-10-15T17:05:29.025Z,13.84
2022-10-15T17:07:59.050Z,13.83
2022-10-15T17:10:33.760Z,13.82
2022-10-15T17:13:11.354Z,13.83
2022-10-15T17:15:54.327Z,13.78
2022-10-15T17:18:41.992Z,13.87
2022-10-15T17:21:32.909Z,13.78
2022-10-15T17:24:25.236Z,13.87
2022-10-15T17:27:20.944Z,13.85
2022-10-15T17:30:11.224Z,13.86
2022-10-15T17:32:57.979Z,13.82
2022-10-15T17:35:46.893Z,13.84
2022-10-15T17:38:34.102Z,13.82
2022-10-15T17:41:24.968Z,13.70
2022-10-15T17:44:12.977Z,13.78
2022-10-15T17:47:01.939Z,13.75
2022-10-15T17:49:50.285Z,13.65
2022-10-15T17:52:36.041Z,13.73
2022-10-15T17:55:22.934Z,13.72
2022-10-15T17:58:08.910Z,13.68
2022-10-15T18:00:56.984Z,13.69
2022-10-15T18:03:48.153Z,13.66
2022-10-15T18:06:36.901Z,13.62
2022-10-15T18:09:22.921Z,13.61
2022-10-15T18:12:10.803Z,13.58
2022-10-15T18:18:33.768Z,13.49
2022-10-15T18:21:03.581Z,13.50
2022-10-15T18:23:33.338Z,13.43
2022-10-15T18:26:02.984Z,13.39
2022-10-15T18:28:32.876Z,13.35
2022-10-15T18:31:04.871Z,13.37
2022-10-15T18:33:40.190Z,13.33
2022-10-15T18:36:09.659Z,13.28
2022-10-15T18:38:38.639Z,13.24
2022-10-15T18:41:15.073Z,13.26
2022-10-15T18:43:47.961Z,13.21
2022-10-15T18:46:20.298Z,13.22
2022-10-15T18:48:51.867Z,13.21
2022-10-15T18:51:21.160Z,13.18
2022-10-15T18:53:50.261Z,13.14
2022-10-15T18:56:19.021Z,13.14
2022-10-15T18:58:47.633Z,13.12
2022-10-15T19:01:26.411Z,13.08
2022-10-15T19:03:58.315Z,13.07
2022-10-15T19:06:32.243Z,12.98
2022-10-15T19:09:01.921Z,12.95
2022-10-15T19:11:31.583Z,12.95
2022-10-15T19:14:03.379Z,12.93
2022-10-15T19:16:33.158Z,12.86
2022-10-15T19:19:04.888Z,12.87
2022-10-15T19:21:34.297Z,12.90
2022-10-15T19:24:03.261Z,12.83
2022-10-15T19:26:32.667Z,12.89
2022-10-15T19:29:01.744Z,12.90
2022-10-15T19:31:32.700Z,12.90
2022-10-15T19:34:03.301Z,12.86
2022-10-15T19:36:33.811Z,12.70
2022-10-15T19:39:04.336Z,12.60
2022-10-15T19:41:33.155Z,12.57
2022-10-15T19:44:04.232Z,12.50
2022-10-15T19:46:32.797Z,12.48
2022-10-15T19:49:03.100Z,12.44
2022-10-15T19:51:32.647Z,12.41
2022-10-15T19:54:05.916Z,12.39
2022-10-15T19:56:34.954Z,12.36
2022-10-15T19:59:07.003Z,12.36
2022-10-15T20:01:36.465Z,12.35
2022-10-15T20:04:13.300Z,12.26
2022-10-15T20:06:42.255Z,12.21
2022-10-15T20:09:11.276Z,12.16
2022-10-15T20:11:40.094Z,12.06
2022-10-15T20:14:09.131Z,12.07
2022-10-15T20:16:38.050Z,12.08
2022-10-15T20:19:07.897Z,12.15
2022-10-15T20:21:38.433Z,12.14
2022-10-15T20:24:07.205Z,12.16
2022-10-15T20:26:35.645Z,11.60
2022-10-15T20:29:04.857Z,11.84
2022-10-15T20:31:35.182Z,11.98
2022-10-15T20:34:04.661Z,12.05
2022-10-15T20:36:33.643Z,12.03
2022-10-15T20:39:04.297Z,12.11
2022-10-15T20:41:33.063Z,11.55
2022-10-15T20:44:02.057Z,12.00
2022-10-15T20:46:34.586Z,11.87
2022-10-15T20:49:08.506Z,11.91
2022-10-15T20:51:39.585Z,11.90
2022-10-15T20:54:12.027Z,11.90
2022-10-15T20:56:45.283Z,11.90
2022-10-15T20:59:14.115Z,11.83
2022-10-15T21:01:44.214Z,11.85
2022-10-15T21:04:13.713Z,11.75
2022-10-15T21:06:42.832Z,11.71
2022-10-15T21:09:13.180Z,11.68
2022-10-15T21:11:42.875Z,11.65
2022-10-15T21:14:12.612Z,11.66
2022-10-15T21:16:42.290Z,11.65
2022-10-15T21:19:14.044Z,11.19
2022-10-15T21:21:43.086Z,11.58
2022-10-15T21:24:15.083Z,11.67
2022-10-15T21:26:43.759Z,11.70
2022-10-15T21:29:18.071Z,11.71
2022-10-15T21:31:47.621Z,11.69
2022-10-15T21:34:16.750Z,11.73
2022-10-15T21:36:45.321Z,11.72
2022-10-15T21:39:15.372Z,11.85
2022-10-15T21:41:44.378Z,11.89
2022-10-15T21:44:13.419Z,11.91
2022-10-15T21:46:42.347Z,11.96
2022-10-15T21:49:11.073Z,11.93
2022-10-15T21:51:40.207Z,11.86
2022-10-15T21:54:09.965Z,11.92
2022-10-15T21:56:40.540Z,11.89
2022-10-15T21:59:09.468Z,11.92
2022-10-15T22:01:39.256Z,11.92
2022-10-15T22:04:09.564Z,11.89
2022-10-15T22:06:40.451Z,11.76
2022-10-15T22:09:09.847Z,11.91
2022-10-15T22:11:42.002Z,11.89
2022-10-15T22:14:13.414Z,12.00
2022-10-15T22:16:43.082Z,12.00
2022-10-15T22:19:18.770Z,12.04
2022-10-15T22:21:47.751Z,12.01
2022-10-15T22:24:17.515Z,12.06
2022-10-15T22:26:50.181Z,12.08
2022-10-15T22:29:21.832Z,12.07
2022-10-15T22:31:51.476Z,12.06
2022-10-15T22:34:20.598Z,11.88
2022-10-15T22:36:49.866Z,12.03
2022-10-15T22:39:19.708Z,11.98
2022-10-15T22:41:50.233Z,12.02
2022-10-15T22:44:20.701Z,12.02
2022-10-15T22:46:50.464Z,12.05
2022-10-15T22:49:20.199Z,12.05
2022-10-15T22:51:49.119Z,12.05
2022-10-15T22:54:19.552Z,12.04
2022-10-15T22:56:50.438Z,12.00
2022-10-15T22:59:18.861Z,11.96
2022-10-15T23:01:48.139Z,11.96
2022-10-15T23:04:16.991Z,11.90
2022-10-15T23:06:45.814Z,11.99
2022-10-15T23:09:18.345Z,12.01
2022-10-15T23:11:47.488Z,12.01
2022-10-15T23:14:18.902Z,12.02
2022-10-15T23:16:49.058Z,11.97
2022-10-15T23:19:19.470Z,12.00
2022-10-15T23:21:49.327Z,11.98
2022-10-15T23:24:19.261Z,11.92
2022-10-15T23:26:52.198Z,11.82
2022-10-15T23:29:24.227Z,11.46
2022-10-15T23:31:53.818Z,11.72
2022-10-15T23:34:23.752Z,11.68
2022-10-15T23:36:52.991Z,11.68
2022-10-15T23:39:22.620Z,11.66
2022-10-15T23:41:51.521Z,11.64
2022-10-15T23:44:21.633Z,11.65
2022-10-15T23:46:50.138Z,11.53
2022-10-15T23:49:18.610Z,11.63
2022-10-15T23:51:47.336Z,11.64
2022-10-15T23:54:18.346Z,11.67
2022-10-15T23:56:47.687Z,11.65
2022-10-15T23:59:17.116Z,11.63
